RJSC(METAR)
04/18 19:00
METAR RJSC 181000Z 01006KT CAVOK 16/05 Q1010 RMK A2985=
戻る
トップページへ戻る
IMOC Co,.Ltd.